Time;durP1;ratioP1;P1;durP2;ratioP2;P2;SDS_P1;SDS_P2;PMS_P1;PMS_P2;Temp;Humidity;BMP_temperature;BMP_pressure;BME280_temperature;BME280_humidity;BME280_pressure;Samples;Min_cycle;Max_cycle;Signal;HPM_P1;HPM_P2
2022/05/23 00:02:18;;;;;;;1.90;1.52;;;;;;;;;;10337724;28;20041;-76
2022/05/23 00:07:26;;;;;;;2.95;1.60;;;;;;;;;;10341764;28;20160;-77
2022/05/23 00:12:29;;;;;;;2.50;1.35;;;;;;;;;;10361667;28;20038;-75
2022/05/23 00:17:32;;;;;;;3.47;1.85;;;;;;;;;;10368096;28;20486;-76
2022/05/23 00:22:36;;;;;;;;;;;;;;;;;;10364390;28;20053;-74
2022/05/23 00:27:42;;;;;;;4.15;1.92;;;;;;;;;;10352687;28;19931;-75
2022/05/23 00:38:08;;;;;;;2.83;1.92;;;;;;;;;;10350930;28;20042;-75
2022/05/23 00:43:17;;;;;;;3.55;1.80;;;;;;;;;;10344887;28;20132;-79
2022/05/23 00:48:21;;;;;;;3.45;1.83;;;;;;;;;;10363820;28;20037;-75
2022/05/23 00:53:27;;;;;;;2.35;2.10;;;;;;;;;;10327834;28;20359;-76
2022/05/23 00:58:32;;;;;;;2.20;1.75;;;;;;;;;;10345653;28;20870;-75
2022/05/23 01:03:36;;;;;;;3.10;1.70;;;;;;;;;;10340020;28;20099;-75
2022/05/23 01:08:41;;;;;;;5.25;2.13;;;;;;;;;;10357023;28;20037;-76
2022/05/23 01:13:45;;;;;;;4.30;2.10;;;;;;;;;;10337730;28;20034;-77
2022/05/23 01:18:49;;;;;;;3.58;2.10;;;;;;;;;;10355912;28;20044;-76
2022/05/23 01:23:55;;;;;;;3.40;2.60;;;;;;;;;;10334830;28;20271;-75
2022/05/23 01:29:08;;;;;;;4.30;2.20;;;;;;;;;;10358829;28;20041;-76
2022/05/23 01:34:15;;;;;;;2.13;1.80;;;;;;;;;;10346909;28;20050;-76
2022/05/23 01:39:19;;;;;;;4.22;2.20;;;;;;;;;;10344275;28;20038;-77
2022/05/23 01:44:24;;;;;;;4.00;1.88;;;;;;;;;;10354278;28;20045;-76
2022/05/23 01:49:28;;;;;;;3.85;2.05;;;;;;;;;;10340902;28;20064;-76
2022/05/23 01:54:31;;;;;;;4.57;2.40;;;;;;;;;;10335084;28;20091;-75
2022/05/23 02:04:57;;;;;;;2.75;2.00;;;;;;;;;;10356222;28;20413;-75
2022/05/23 02:10:01;;;;;;;4.40;2.00;;;;;;;;;;10352338;28;20517;-76
2022/05/23 02:15:04;;;;;;;;;;;;;;;;;;10356258;28;20042;-77
2022/05/23 02:20:10;;;;;;;1.60;1.02;;;;;;;;;;10343333;28;20306;-74
2022/05/23 02:25:13;;;;;;;1.20;1.10;;;;;;;;;;10338485;28;20246;-77
2022/05/23 02:30:16;;;;;;;3.72;1.80;;;;;;;;;;10336816;28;20534;-76
2022/05/23 02:35:21;;;;;;;2.55;1.70;;;;;;;;;;10343517;28;20045;-75
2022/05/23 02:40:24;;;;;;;3.35;1.70;;;;;;;;;;10365377;28;20085;-76
2022/05/23 02:45:27;;;;;;;3.50;2.08;;;;;;;;;;10350427;28;20498;-76
2022/05/23 02:50:32;;;;;;;5.05;1.90;;;;;;;;;;10346079;28;20033;-76
2022/05/23 02:55:35;;;;;;;2.53;1.63;;;;;;;;;;10347646;28;20065;-72
2022/05/23 03:00:38;;;;;;;4.75;2.33;;;;;;;;;;10344777;28;20099;-75
2022/05/23 03:05:44;;;;;;;3.85;2.10;;;;;;;;;;10347000;28;20045;-76
2022/05/23 03:10:48;;;;;;;3.38;2.05;;;;;;;;;;10368641;28;20406;-77
2022/05/23 03:15:51;;;;;;;4.32;2.13;;;;;;;;;;10349290;28;20053;-75
2022/05/23 03:20:58;;;;;;;2.33;1.77;;;;;;;;;;10347709;28;20042;-76
2022/05/23 03:31:30;;;;;;;5.55;2.47;;;;;;;;;;10362920;28;20136;-77
2022/05/23 03:36:35;;;;;;;3.08;1.90;;;;;;;;;;10347889;28;20050;-73
2022/05/23 03:41:38;;;;;;;3.42;2.13;;;;;;;;;;10350808;28;20071;-77
2022/05/23 03:46:41;;;;;;;;;;;;;;;;;;10344618;28;20235;-77
2022/05/23 03:51:46;;;;;;;5.20;2.17;;;;;;;;;;10360035;28;19928;-78
2022/05/23 03:56:49;;;;;;;3.05;2.13;;;;;;;;;;10356599;28;20296;-76
2022/05/23 04:01:52;;;;;;;3.40;1.85;;;;;;;;;;10346397;28;20037;-76
2022/05/23 04:07:00;;;;;;;3.08;1.45;;;;;;;;;;10346242;28;20045;-77
2022/05/23 04:12:04;;;;;;;5.00;2.33;;;;;;;;;;10361687;28;20418;-76
2022/05/23 04:17:28;;;;;;;3.43;2.07;;;;;;;;;;10362572;28;20124;-75
2022/05/23 04:22:52;;;;;;;2.97;1.58;;;;;;;;;;10355950;28;20050;-77
2022/05/23 04:27:55;;;;;;;4.82;2.35;;;;;;;;;;10347671;28;20100;-76
2022/05/23 04:38:21;;;;;;;3.95;2.25;;;;;;;;;;10356291;28;20042;-75
2022/05/23 04:43:24;;;;;;;5.50;2.22;;;;;;;;;;10359609;28;20514;-78
2022/05/23 04:53:53;;;;;;;2.78;1.88;;;;;;;;;;10357308;28;20560;-77
2022/05/23 04:58:57;;;;;;;3.35;2.30;;;;;;;;;;10362674;28;20077;-75
2022/05/23 05:04:00;;;;;;;;;;;;;;;;;;10329871;28;20144;-76
2022/05/23 05:09:04;;;;;;;4.43;2.40;;;;;;;;;;10333988;28;19928;-75
2022/05/23 05:14:08;;;;;;;8.05;2.67;;;;;;;;;;10336277;28;20112;-76
2022/05/23 05:19:11;;;;;;;3.67;2.30;;;;;;;;;;10352328;28;20038;-76
2022/05/23 05:24:15;;;;;;;6.97;2.60;;;;;;;;;;10337979;28;20043;-76
2022/05/23 05:29:18;;;;;;;4.85;2.80;;;;;;;;;;10355443;28;20034;-77
2022/05/23 05:34:24;;;;;;;4.10;2.40;;;;;;;;;;10374197;28;20046;-81
2022/05/23 05:39:31;;;;;;;3.85;2.42;;;;;;;;;;10364018;28;20034;-80
2022/05/23 05:44:36;;;;;;;3.08;2.30;;;;;;;;;;10361174;28;20054;-79
2022/05/23 05:49:41;;;;;;;4.82;2.40;;;;;;;;;;10374097;28;20473;-79
2022/05/23 05:54:46;;;;;;;3.72;2.47;;;;;;;;;;10353924;28;20069;-81
2022/05/23 05:59:49;;;;;;;37.83;5.68;;;;;;;;;;10367349;28;20042;-80
2022/05/23 06:04:53;;;;;;;3.70;2.58;;;;;;;;;;10370920;28;20603;-82
2022/05/23 06:15:19;;;;;;;6.18;2.88;;;;;;;;;;10383699;28;20048;-82
2022/05/23 06:20:23;;;;;;;93.68;13.55;;;;;;;;;;10387674;28;20160;-82
2022/05/23 06:25:28;;;;;;;59.90;7.38;;;;;;;;;;10370278;28;20038;-83
2022/05/23 06:30:31;;;;;;;4.88;2.72;;;;;;;;;;10385801;28;20041;-83
2022/05/23 06:35:34;;;;;;;31.63;5.25;;;;;;;;;;10404578;28;20108;-84
2022/05/23 06:40:40;;;;;;;43.22;6.30;;;;;;;;;;10384884;28;20605;-82
2022/05/23 06:45:43;;;;;;;8.00;3.28;;;;;;;;;;10376224;28;20076;-82
2022/05/23 06:50:49;;;;;;;6.22;2.97;;;;;;;;;;10372904;28;20045;-75
2022/05/23 06:55:53;;;;;;;12.05;3.35;;;;;;;;;;10365807;28;20065;-78
2022/05/23 07:00:57;;;;;;;12.60;3.13;;;;;;;;;;10345377;28;20042;-76
2022/05/23 07:16:42;;;;;;;9.52;2.80;;;;;;;;;;10352207;28;20048;-76
2022/05/23 07:21:45;;;;;;;5.35;2.90;;;;;;;;;;10355712;28;20129;-74
2022/05/23 07:26:50;;;;;;;6.20;2.92;;;;;;;;;;10361205;28;20101;-79
2022/05/23 07:31:53;;;;;;;5.43;2.92;;;;;;;;;;10362140;28;20046;-77
2022/05/23 07:36:58;;;;;;;9.10;2.90;;;;;;;;;;10360498;28;20041;-76
2022/05/23 07:42:03;;;;;;;15.63;4.78;;;;;;;;;;10342714;28;20561;-76
2022/05/23 07:47:06;;;;;;;28.60;5.05;;;;;;;;;;10340640;28;20050;-75
2022/05/23 07:52:09;;;;;;;;;;;;;;;;;;10353539;28;20038;-77
2022/05/23 08:02:34;;;;;;;7.13;3.03;;;;;;;;;;10342639;28;20046;-76
2022/05/23 08:07:38;;;;;;;12.73;3.10;;;;;;;;;;10340068;28;20494;-75
2022/05/23 08:12:43;;;;;;;82.75;9.10;;;;;;;;;;10346156;28;20042;-77
2022/05/23 08:17:51;;;;;;;10.57;3.20;;;;;;;;;;10339279;28;20046;-77
2022/05/23 08:23:00;;;;;;;11.32;3.53;;;;;;;;;;10351374;28;20503;-75
2022/05/23 08:28:05;;;;;;;9.57;3.30;;;;;;;;;;10347192;28;20302;-76
2022/05/23 08:33:09;;;;;;;8.18;3.10;;;;;;;;;;10361350;28;20041;-76
2022/05/23 08:38:12;;;;;;;4.53;2.95;;;;;;;;;;10342776;28;20112;-76
2022/05/23 08:43:21;;;;;;;6.95;3.25;;;;;;;;;;10357074;28;20521;-76
2022/05/23 08:48:27;;;;;;;5.80;3.05;;;;;;;;;;10356875;28;20062;-77
2022/05/23 08:53:33;;;;;;;5.80;3.15;;;;;;;;;;10334395;28;20141;-76
2022/05/23 08:58:39;;;;;;;7.18;2.75;;;;;;;;;;10348399;28;20120;-76
2022/05/23 09:03:45;;;;;;;7.63;2.58;;;;;;;;;;10323832;28;20464;-76
2022/05/23 09:08:50;;;;;;;8.02;3.42;;;;;;;;;;10341406;28;20131;-74
2022/05/23 09:13:55;;;;;;;4.97;3.05;;;;;;;;;;10342298;28;20355;-77
2022/05/23 09:19:03;;;;;;;5.53;3.50;;;;;;;;;;10339453;28;20370;-75
2022/05/23 09:24:06;;;;;;;8.98;3.38;;;;;;;;;;10351375;28;20041;-76
2022/05/23 09:29:10;;;;;;;3.78;2.50;;;;;;;;;;10341979;28;20095;-76
2022/05/23 09:34:27;;;;;;;2.90;2.60;;;;;;;;;;10348311;28;20502;-76
2022/05/23 09:39:34;;;;;;;3.83;2.78;;;;;;;;;;10347957;28;20053;-78
2022/05/23 09:50:05;;;;;;;3.17;2.20;;;;;;;;;;10344637;28;20042;-80
2022/05/23 09:55:31;;;;;;;3.80;1.92;;;;;;;;;;10342235;28;20042;-79
2022/05/23 10:00:36;;;;;;;4.57;2.47;;;;;;;;;;10359840;28;20451;-75
2022/05/23 10:05:41;;;;;;;6.05;2.28;;;;;;;;;;10361021;28;20046;-77
2022/05/23 10:10:53;;;;;;;4.63;2.60;;;;;;;;;;10353456;28;20041;-78
2022/05/23 10:15:59;;;;;;;4.47;2.20;;;;;;;;;;10353843;28;20144;-75
2022/05/23 10:21:03;;;;;;;3.67;1.85;;;;;;;;;;10361058;28;20421;-79
2022/05/23 10:26:08;;;;;;;5.68;2.40;;;;;;;;;;10342055;28;20434;-77
2022/05/23 10:31:15;;;;;;;4.38;2.30;;;;;;;;;;10355526;28;20038;-78
2022/05/23 10:36:21;;;;;;;2.72;1.63;;;;;;;;;;10330983;28;20187;-77
2022/05/23 10:46:54;;;;;;;7.40;2.90;;;;;;;;;;10358646;28;20038;-79
2022/05/23 10:52:22;;;;;;;2.08;1.85;;;;;;;;;;10339427;28;20045;-76
2022/05/23 10:57:29;;;;;;;4.15;2.28;;;;;;;;;;10347822;28;20045;-79
2022/05/23 11:02:40;;;;;;;5.18;2.88;;;;;;;;;;10363207;28;20041;-77
2022/05/23 11:07:47;;;;;;;6.80;3.00;;;;;;;;;;10342838;28;20137;-75
2022/05/23 11:12:57;;;;;;;8.15;2.97;;;;;;;;;;10348124;28;21131;-77
2022/05/23 11:18:06;;;;;;;9.55;3.05;;;;;;;;;;10342058;28;20041;-79
2022/05/23 11:23:11;;;;;;;7.90;3.00;;;;;;;;;;10341826;28;20060;-77
2022/05/23 11:33:46;;;;;;;4.82;2.72;;;;;;;;;;10362392;28;20493;-77
2022/05/23 11:38:50;;;;;;;3.83;2.53;;;;;;;;;;10343863;28;20057;-78
2022/05/23 11:43:53;;;;;;;8.95;2.80;;;;;;;;;;10341812;28;20038;-77
2022/05/23 11:49:03;;;;;;;6.45;2.90;;;;;;;;;;10349157;28;20137;-76
2022/05/23 11:54:13;;;;;;;7.05;2.80;;;;;;;;;;10342513;28;20068;-77
2022/05/23 11:59:35;;;;;;;7.53;3.17;;;;;;;;;;10336355;28;20074;-78
2022/05/23 12:04:59;;;;;;;6.43;2.65;;;;;;;;;;10350897;28;20050;-75
2022/05/23 12:10:16;;;;;;;4.90;2.63;;;;;;;;;;10363600;28;20049;-78
2022/05/23 12:15:47;;;;;;;8.85;2.53;;;;;;;;;;10362041;28;20459;-79
2022/05/23 12:20:52;;;;;;;6.15;2.50;;;;;;;;;;10318528;28;20060;-78
2022/05/23 12:26:05;;;;;;;8.60;3.08;;;;;;;;;;10337308;28;20042;-77
2022/05/23 12:31:10;;;;;;;8.30;2.63;;;;;;;;;;10349207;28;20076;-78
2022/05/23 12:36:18;;;;;;;6.38;2.75;;;;;;;;;;10342356;28;20255;-76
2022/05/23 12:41:35;;;;;;;5.80;2.80;;;;;;;;;;10344610;28;20047;-79
2022/05/23 12:46:44;;;;;;;6.10;2.33;;;;;;;;;;10335284;28;20066;-78
2022/05/23 12:51:53;;;;;;;4.03;2.53;;;;;;;;;;10352551;28;20409;-76
2022/05/23 12:57:17;;;;;;;12.30;6.90;;;;;;;;;;10348867;28;20254;-78
2022/05/23 13:02:24;;;;;;;8.52;2.88;;;;;;;;;;10341292;28;20050;-77
2022/05/23 13:07:35;;;;;;;7.05;2.50;;;;;;;;;;10358964;28;20049;-77
2022/05/23 13:12:39;;;;;;;9.57;2.50;;;;;;;;;;10359509;28;20048;-77
2022/05/23 13:17:46;;;;;;;7.25;2.53;;;;;;;;;;10336899;28;20041;-76
2022/05/23 13:22:51;;;;;;;10.13;3.50;;;;;;;;;;10335161;28;20607;-76
2022/05/23 13:27:58;;;;;;;9.95;2.80;;;;;;;;;;10332539;28;20129;-78
2022/05/23 13:33:06;;;;;;;6.47;2.28;;;;;;;;;;10341663;28;20038;-78
2022/05/23 13:38:14;;;;;;;7.45;2.60;;;;;;;;;;10333316;28;20040;-78
2022/05/23 13:43:19;;;;;;;8.27;2.65;;;;;;;;;;10334202;28;20042;-77
2022/05/23 13:48:26;;;;;;;9.82;2.80;;;;;;;;;;10358538;28;20109;-77
2022/05/23 13:53:32;;;;;;;8.65;3.42;;;;;;;;;;10339398;28;20037;-77
2022/05/23 13:58:39;;;;;;;7.32;2.65;;;;;;;;;;10355970;28;20818;-75
2022/05/23 14:03:43;;;;;;;4.88;2.05;;;;;;;;;;10347788;28;20045;-76
2022/05/23 14:08:57;;;;;;;5.90;2.40;;;;;;;;;;10350907;28;20526;-78
2022/05/23 14:14:02;;;;;;;7.75;2.42;;;;;;;;;;10357970;28;20052;-78
2022/05/23 14:19:14;;;;;;;8.50;2.60;;;;;;;;;;10353581;28;20343;-78
2022/05/23 14:24:21;;;;;;;5.47;2.45;;;;;;;;;;10371928;28;20042;-79
2022/05/23 14:29:25;;;;;;;4.90;2.28;;;;;;;;;;10350603;28;20038;-79
2022/05/23 14:34:29;;;;;;;6.70;2.55;;;;;;;;;;10347869;28;20046;-79
2022/05/23 14:39:35;;;;;;;10.35;2.88;;;;;;;;;;10347590;28;20395;-77
2022/05/23 14:44:38;;;;;;;9.95;2.95;;;;;;;;;;10361529;28;20478;-78
2022/05/23 14:49:58;;;;;;;9.48;2.83;;;;;;;;;;10376147;28;20152;-78
2022/05/23 14:55:21;;;;;;;11.90;2.80;;;;;;;;;;10329525;28;20120;-78
2022/05/23 15:00:48;;;;;;;12.23;3.35;;;;;;;;;;10354988;28;20159;-77
2022/05/23 15:05:53;;;;;;;8.23;2.47;;;;;;;;;;10351874;28;20076;-77
2022/05/23 15:10:58;;;;;;;9.80;3.20;;;;;;;;;;10338659;28;20398;-77
2022/05/23 15:16:03;;;;;;;6.47;2.78;;;;;;;;;;10349724;28;20040;-78
2022/05/23 15:21:09;;;;;;;9.70;3.40;;;;;;;;;;10346453;28;20037;-77
2022/05/23 15:26:17;;;;;;;11.15;3.58;;;;;;;;;;10327651;28;20061;-77
2022/05/23 15:31:22;;;;;;;11.13;3.40;;;;;;;;;;10346546;28;20042;-77
2022/05/23 15:36:25;;;;;;;6.45;2.40;;;;;;;;;;10340475;28;20044;-79
2022/05/23 15:41:30;;;;;;;8.77;3.53;;;;;;;;;;10356887;28;20681;-77
2022/05/23 15:46:33;;;;;;;9.45;3.40;;;;;;;;;;10350626;28;20466;-77
2022/05/23 15:51:36;;;;;;;9.82;3.38;;;;;;;;;;10363943;28;20052;-78
2022/05/23 15:56:41;;;;;;;8.30;3.40;;;;;;;;;;10339610;28;20592;-79
2022/05/23 16:01:44;;;;;;;7.28;3.80;;;;;;;;;;10347138;28;20068;-78
2022/05/23 16:06:47;;;;;;;;;;;;;;;;;;10339734;28;20515;-77
2022/05/23 16:11:52;;;;;;;10.80;4.57;;;;;;;;;;10340932;28;19925;-76
2022/05/23 16:16:58;;;;;;;12.27;4.88;;;;;;;;;;10344671;28;20044;-77
2022/05/23 16:22:05;;;;;;;7.53;3.60;;;;;;;;;;10362519;28;20050;-76
2022/05/23 16:27:09;;;;;;;12.15;3.58;;;;;;;;;;10350900;28;20058;-77
2022/05/23 16:36:35;;;;;;;8.68;4.43;;;;;;;;;;10337305;28;20099;-79
2022/05/23 16:37:36;;;;;;;10.02;3.88;;;;;;;;;;10354577;28;20046;-78
2022/05/23 16:42:40;;;;;;;7.45;3.72;;;;;;;;;;10351524;28;20053;-80
2022/05/23 16:47:44;;;;;;;12.63;4.45;;;;;;;;;;10342937;28;20049;-77
2022/05/23 16:52:47;;;;;;;10.65;3.53;;;;;;;;;;10345556;28;20531;-77
2022/05/23 16:57:52;;;;;;;5.10;2.47;;;;;;;;;;10343488;28;20152;-79
2022/05/23 17:02:56;;;;;;;10.82;4.78;;;;;;;;;;10350321;28;20374;-80
2022/05/23 17:07:59;;;;;;;9.50;3.33;;;;;;;;;;10339079;28;20046;-77
2022/05/23 17:13:06;;;;;;;9.43;4.65;;;;;;;;;;10350403;28;20042;-76
2022/05/23 17:18:09;;;;;;;7.38;2.97;;;;;;;;;;10333733;28;20120;-75
2022/05/23 17:23:13;;;;;;;10.57;3.75;;;;;;;;;;10356839;28;20048;-75
2022/05/23 17:28:19;;;;;;;16.13;4.20;;;;;;;;;;10359102;28;20052;-74
2022/05/23 17:33:22;;;;;;;8.73;3.58;;;;;;;;;;10340451;28;20039;-74
2022/05/23 17:38:25;;;;;;;7.55;3.80;;;;;;;;;;10360347;28;20488;-74
2022/05/23 17:43:29;;;;;;;9.60;3.88;;;;;;;;;;10340336;28;20037;-75
2022/05/23 17:48:32;;;;;;;10.18;4.22;;;;;;;;;;10347861;28;20591;-77
2022/05/23 17:53:36;;;;;;;11.00;4.07;;;;;;;;;;10341148;28;20193;-74
2022/05/23 17:58:41;;;;;;;6.90;4.35;;;;;;;;;;10348362;28;20049;-72
2022/05/23 18:03:44;;;;;;;11.20;4.22;;;;;;;;;;10357778;28;20041;-75
2022/05/23 18:08:47;;;;;;;9.20;2.30;;;;;;;;;;10340254;28;20136;-79
2022/05/23 18:19:13;;;;;;;3.88;0.90;;;;;;;;;;10350497;28;20227;-77
2022/05/23 18:24:17;;;;;;;4.40;0.57;;;;;;;;;;10360262;28;20637;-78
2022/05/23 18:29:21;;;;;;;2.00;0.57;;;;;;;;;;10355754;28;20045;-78
2022/05/23 18:34:24;;;;;;;3.58;0.63;;;;;;;;;;10346629;28;20045;-80
2022/05/23 18:39:27;;;;;;;4.80;1.30;;;;;;;;;;10364034;28;20569;-79
2022/05/23 18:44:32;;;;;;;3.80;1.40;;;;;;;;;;10363071;28;20037;-77
2022/05/23 18:49:48;;;;;;;4.53;0.90;;;;;;;;;;10368764;28;20096;-77
2022/05/23 18:54:51;;;;;;;1.42;0.93;;;;;;;;;;10364547;28;20084;-79
2022/05/23 18:59:56;;;;;;;1.65;0.93;;;;;;;;;;10349153;28;20386;-79
2022/05/23 19:04:59;;;;;;;1.65;0.60;;;;;;;;;;10367746;28;20406;-79
2022/05/23 19:10:04;;;;;;;2.33;0.88;;;;;;;;;;10360037;28;20049;-80
2022/05/23 19:15:09;;;;;;;1.70;1.00;;;;;;;;;;10363431;28;20034;-78
2022/05/23 19:20:12;;;;;;;1.98;1.02;;;;;;;;;;10359520;28;20077;-78
2022/05/23 19:25:15;;;;;;;3.70;1.17;;;;;;;;;;10366665;28;20418;-78
2022/05/23 19:30:20;;;;;;;9.10;1.90;;;;;;;;;;10348197;28;20048;-77
2022/05/23 19:35:23;;;;;;;1.65;0.90;;;;;;;;;;10341890;28;20451;-79
2022/05/23 19:40:26;;;;;;;2.05;0.80;;;;;;;;;;10349038;28;20049;-78
2022/05/23 19:45:32;;;;;;;4.32;1.95;;;;;;;;;;10345837;28;20096;-75
2022/05/23 19:50:35;;;;;;;2.97;1.38;;;;;;;;;;10370043;28;20076;-73
2022/05/23 19:55:39;;;;;;;;;;;;;;;;;;10360818;28;20043;-73
2022/05/23 20:00:47;;;;;;;2.97;1.42;;;;;;;;;;10372154;28;19925;-76
2022/05/23 20:11:11;;;;;;;2.95;1.13;;;;;;;;;;10341147;28;20411;-77
2022/05/23 20:16:17;;;;;;;4.50;0.88;;;;;;;;;;10338449;28;20085;-76
2022/05/23 20:21:20;;;;;;;3.42;0.85;;;;;;;;;;10343310;28;20044;-75
2022/05/23 20:26:23;;;;;;;3.00;0.77;;;;;;;;;;10362701;28;20041;-75
2022/05/23 20:31:27;;;;;;;2.70;0.97;;;;;;;;;;10341505;28;20046;-77
2022/05/23 20:36:31;;;;;;;1.80;0.52;;;;;;;;;;10342355;28;20042;-75
2022/05/23 20:41:35;;;;;;;2.70;1.10;;;;;;;;;;10345681;28;20049;-77
2022/05/23 20:46:59;;;;;;;1.50;0.80;;;;;;;;;;10339128;28;20053;-74
2022/05/23 20:52:03;;;;;;;2.45;0.73;;;;;;;;;;10360582;28;20069;-75
2022/05/23 20:57:06;;;;;;;1.98;0.77;;;;;;;;;;10358896;28;20116;-75
2022/05/23 21:02:11;;;;;;;0.50;0.50;;;;;;;;;;10362046;28;20050;-77
2022/05/23 21:07:14;;;;;;;1.13;0.70;;;;;;;;;;10339173;28;20297;-75
2022/05/23 21:12:18;;;;;;;1.88;0.70;;;;;;;;;;10355073;28;20044;-74
2022/05/23 21:17:23;;;;;;;3.22;0.90;;;;;;;;;;10341345;28;20044;-78
2022/05/23 21:22:27;;;;;;;1.20;0.90;;;;;;;;;;10362069;28;20517;-78
2022/05/23 21:27:30;;;;;;;3.00;1.10;;;;;;;;;;10354495;28;20721;-77
2022/05/23 21:32:33;;;;;;;;;;;;;;;;;;10339424;28;20099;-77
2022/05/23 21:37:38;;;;;;;2.90;1.10;;;;;;;;;;10340588;28;19922;-75
2022/05/23 21:48:02;;;;;;;1.13;0.52;;;;;;;;;;10339620;28;20137;-78
2022/05/23 21:53:07;;;;;;;2.10;1.07;;;;;;;;;;10338028;28;20045;-78
2022/05/23 21:58:10;;;;;;;1.25;0.80;;;;;;;;;;10353937;28;20053;-77
2022/05/23 22:03:14;;;;;;;2.15;1.10;;;;;;;;;;10331170;28;20042;-77
2022/05/23 22:08:18;;;;;;;4.78;1.20;;;;;;;;;;10354958;28;20038;-77
2022/05/23 22:13:22;;;;;;;1.73;0.95;;;;;;;;;;10337950;28;20472;-76
2022/05/23 22:18:25;;;;;;;;;;;;;;;;;;10332926;28;20133;-76
2022/05/23 22:23:29;;;;;;;3.38;1.40;;;;;;;;;;10335693;28;19922;-76
2022/05/23 22:28:33;;;;;;;6.15;1.40;;;;;;;;;;10358612;28;20041;-74
2022/05/23 22:33:36;;;;;;;3.05;1.00;;;;;;;;;;10335361;28;20461;-78
2022/05/23 22:38:41;;;;;;;2.55;0.90;;;;;;;;;;10336076;28;20041;-75
2022/05/23 22:43:44;;;;;;;3.15;1.15;;;;;;;;;;10360127;28;20518;-76
2022/05/23 22:48:47;;;;;;;2.17;1.27;;;;;;;;;;10346385;28;20037;-75
2022/05/23 22:53:51;;;;;;;5.63;1.70;;;;;;;;;;10340808;28;20312;-76
2022/05/23 22:58:56;;;;;;;2.00;1.40;;;;;;;;;;10340605;28;20030;-79
2022/05/23 23:09:21;;;;;;;2.97;1.58;;;;;;;;;;10366481;28;20042;-77
2022/05/23 23:14:25;;;;;;;3.08;1.25;;;;;;;;;;10359560;28;20045;-76
2022/05/23 23:19:27;;;;;;;4.30;1.83;;;;;;;;;;10350224;28;20430;-77
2022/05/23 23:24:32;;;;;;;8.25;1.52;;;;;;;;;;10363006;28;20076;-76
2022/05/23 23:29:35;;;;;;;7.07;1.45;;;;;;;;;;10363776;28;20417;-78
2022/05/23 23:40:00;;;;;;;0.88;0.70;;;;;;;;;;10341768;28;20066;-76
2022/05/23 23:45:04;;;;;;;3.92;1.70;;;;;;;;;;10365273;28;20049;-78
2022/05/23 23:50:08;;;;;;;3.13;1.58;;;;;;;;;;10371220;28;20383;-78
2022/05/23 23:55:12;;;;;;;2.20;1.08;;;;;;;;;;10358107;28;20151;-77
